SBOSBO OBF / EDMO
Speedbird OnlineSpeedbird Online OBF / EDMO

Oberpfaffenhofen Airport
10:19 21.9°C

Location Oberpfaffenhofen, Germany
Latitude: 48.081402
Longitude: 11.2831
Local Time 10:19 on 18 Jul 2024
UTC +2 hours (Europe/Berlin)
Currency £1 equals EUR 1.19
METAR EDMO 180750Z 06009KT 030V090 CAVOK 21/15 Q1023
TAF TAF EDMO 180500Z 1806/1815 06008KT 9999 SCT035
Weather As Of 18 Jul 2024 10:19
Description Clear sky
Wind 17 km/h from North-East (60°)
Cloud Cover 0%
Precipitation Rain: none, Snow: none
Sunrise 05:34
Sunset 21:07
Codes IATA: OBF
ICAO: EDMO
Altitude 593 Meter / 1947 Feet
Distance 885 KM / 550 Miles
from London.



Support Speedbird Online

© 2017-2024 Speedbird Online